createdAt,value
2022-10-09T00:08:51.908Z,99.90
2022-10-09T00:18:56.405Z,99.90
2022-10-09T00:29:01.645Z,99.90
2022-10-09T00:39:05.327Z,99.90
2022-10-09T00:49:22.113Z,99.90
2022-10-09T00:59:26.267Z,99.90
2022-10-09T01:09:41.224Z,99.90
2022-10-09T01:20:12.478Z,99.90
2022-10-09T01:30:18.021Z,99.90
2022-10-09T01:40:22.709Z,99.90
2022-10-09T01:50:34.029Z,99.90
2022-10-09T02:00:40.626Z,99.90
2022-10-09T02:10:48.159Z,99.90
2022-10-09T02:20:56.887Z,99.90
2022-10-09T02:31:10.331Z,99.90
2022-10-09T02:41:14.440Z,99.90
2022-10-09T02:51:20.427Z,99.90
2022-10-09T03:01:24.566Z,99.90
2022-10-09T03:11:29.899Z,99.90
2022-10-09T03:21:33.777Z,99.90
2022-10-09T03:31:51.691Z,99.90
2022-10-09T03:41:57.794Z,99.90
2022-10-09T03:52:02.915Z,99.90
2022-10-09T04:02:06.579Z,99.90
2022-10-09T04:12:11.697Z,99.90
2022-10-09T04:22:15.364Z,99.90
2022-10-09T04:32:20.338Z,99.90
2022-10-09T04:42:24.066Z,99.90
2022-10-09T04:52:29.318Z,99.90
2022-10-09T05:02:32.990Z,99.90
2022-10-09T05:12:38.087Z,99.90
2022-10-09T05:22:41.676Z,99.90
2022-10-09T05:32:47.030Z,99.90
2022-10-09T05:42:51.649Z,99.90
2022-10-09T05:52:57.011Z,99.90
2022-10-09T06:03:03.380Z,99.90
2022-10-09T06:13:08.555Z,99.90
2022-10-09T06:23:12.163Z,99.90
2022-10-09T06:33:17.758Z,99.90
2022-10-09T06:43:22.739Z,99.90
2022-10-09T06:53:27.862Z,99.90
2022-10-09T07:03:31.864Z,99.90
2022-10-09T07:13:37.243Z,99.90
2022-10-09T07:23:41.024Z,99.90
2022-10-09T07:33:48.496Z,99.90
2022-10-09T07:43:52.482Z,99.90
2022-10-09T07:53:59.918Z,99.90
2022-10-09T08:04:04.883Z,99.90
2022-10-09T08:14:18.772Z,99.90
2022-10-09T08:24:22.883Z,99.90
2022-10-09T08:34:28.140Z,99.90
2022-10-09T08:44:39.041Z,99.90
2022-10-09T08:54:44.826Z,99.90
2022-10-09T09:05:00.381Z,99.90
2022-10-09T09:15:25.797Z,99.90
2022-10-09T09:25:34.406Z,99.90
2022-10-09T09:35:47.966Z,99.90
2022-10-09T09:45:55.073Z,99.90
2022-10-09T09:56:01.072Z,99.90
2022-10-09T10:06:05.626Z,99.90
2022-10-09T10:16:12.291Z,98.40
2022-10-09T10:26:25.381Z,97.50
2022-10-09T10:36:30.436Z,96.40
2022-10-09T10:46:44.433Z,94.90
2022-10-09T10:56:55.198Z,93.30
2022-10-09T11:07:17.791Z,92.10
2022-10-09T11:17:32.607Z,91.30
2022-10-09T11:27:44.065Z,90.30
2022-10-09T11:37:59.911Z,89.30
2022-10-09T11:48:10.014Z,87.30
2022-10-09T11:58:25.902Z,87.00
2022-10-09T12:08:30.155Z,85.10
2022-10-09T12:18:38.725Z,84.10
2022-10-09T12:28:50.086Z,79.50
2022-10-09T12:38:55.631Z,82.70
2022-10-09T12:49:00.900Z,77.70
2022-10-09T12:59:07.442Z,77.70
2022-10-09T13:09:21.857Z,76.70
2022-10-09T13:19:30.416Z,76.70
2022-10-09T13:29:34.568Z,77.40
2022-10-09T13:39:39.806Z,74.00
2022-10-09T13:49:43.705Z,74.60
2022-10-09T13:59:50.713Z,75.40
2022-10-09T14:09:55.329Z,73.30
2022-10-09T14:20:00.778Z,73.90
2022-10-09T14:30:05.768Z,73.60
2022-10-09T14:40:12.450Z,74.00
2022-10-09T14:50:16.982Z,74.00
2022-10-09T15:00:23.131Z,72.20
2022-10-09T15:10:26.852Z,74.00
2022-10-09T15:20:32.064Z,71.60
2022-10-09T15:30:35.789Z,70.80
2022-10-09T15:40:46.703Z,72.10
2022-10-09T15:50:53.436Z,72.40
2022-10-09T16:01:08.285Z,72.90
2022-10-09T16:11:14.660Z,75.60
2022-10-09T16:21:22.514Z,77.50
2022-10-09T16:31:30.505Z,78.60
2022-10-09T16:41:40.996Z,81.20
2022-10-09T16:51:45.726Z,84.50
2022-10-09T17:01:50.860Z,90.90
2022-10-09T17:11:54.477Z,92.90
2022-10-09T17:22:02.764Z,95.40
2022-10-09T17:32:08.032Z,96.10
2022-10-09T17:42:13.053Z,97.10
2022-10-09T17:52:16.917Z,96.90
2022-10-09T18:02:22.041Z,97.30
2022-10-09T18:12:25.749Z,98.00
2022-10-09T18:22:30.742Z,98.60
2022-10-09T18:32:34.440Z,99.90
2022-10-09T18:42:39.549Z,99.90
2022-10-09T18:52:44.305Z,99.90
2022-10-09T19:02:49.261Z,99.90
2022-10-09T19:12:54.300Z,99.90
2022-10-09T19:22:59.301Z,99.90
2022-10-09T19:33:03.007Z,99.90
2022-10-09T19:43:08.623Z,99.90
2022-10-09T19:53:14.221Z,99.90
2022-10-09T20:03:19.847Z,99.90
2022-10-09T20:13:29.961Z,99.90
2022-10-09T20:23:35.634Z,99.90
2022-10-09T20:33:40.397Z,99.90
2022-10-09T20:43:46.279Z,99.90
2022-10-09T20:53:55.757Z,99.90
2022-10-09T21:04:00.719Z,99.90
2022-10-09T21:14:04.676Z,99.90
2022-10-09T21:24:12.675Z,99.90
2022-10-09T21:34:16.298Z,99.90
2022-10-09T21:44:21.242Z,99.90
2022-10-09T21:54:25.431Z,99.90
2022-10-09T22:04:30.741Z,99.90
2022-10-09T22:14:34.443Z,99.90
2022-10-09T22:24:39.551Z,99.90
2022-10-09T22:34:44.644Z,99.90
2022-10-09T22:44:57.122Z,99.90
2022-10-09T22:55:03.483Z,99.90
2022-10-09T23:05:09.616Z,99.90
2022-10-09T23:15:13.306Z,99.90
2022-10-09T23:25:18.459Z,99.90
2022-10-09T23:35:22.033Z,99.90
2022-10-09T23:45:28.016Z,99.90
2022-10-09T23:55:31.610Z,99.90
